sensor_id;sensor_type;location;lat;lon;timestamp;P1;durP1;ratioP1;P2;durP2;ratioP2
57325;SDS011;43161;50.950;18.224;2023-11-22T00:00:09;70.80;;;24.40;;
57325;SDS011;43161;50.950;18.224;2023-11-22T00:02:36;74.50;;;25.50;;
57325;SDS011;43161;50.950;18.224;2023-11-22T00:05:02;73.40;;;25.90;;
57325;SDS011;43161;50.950;18.224;2023-11-22T00:07:30;72.40;;;26.10;;
57325;SDS011;43161;50.950;18.224;2023-11-22T00:09:57;78.40;;;26.50;;
57325;SDS011;43161;50.950;18.224;2023-11-22T00:12:23;77.40;;;26.70;;
57325;SDS011;43161;50.950;18.224;2023-11-22T00:14:50;78.60;;;26.00;;
57325;SDS011;43161;50.950;18.224;2023-11-22T00:17:16;73.70;;;25.60;;
57325;SDS011;43161;50.950;18.224;2023-11-22T00:19:43;74.90;;;26.00;;
57325;SDS011;43161;50.950;18.224;2023-11-22T00:22:12;80.30;;;25.90;;
57325;SDS011;43161;50.950;18.224;2023-11-22T00:24:41;75.30;;;25.20;;
57325;SDS011;43161;50.950;18.224;2023-11-22T00:27:07;78.50;;;27.60;;
57325;SDS011;43161;50.950;18.224;2023-11-22T00:29:33;74.10;;;25.10;;
57325;SDS011;43161;50.950;18.224;2023-11-22T00:31:59;80.90;;;26.20;;
57325;SDS011;43161;50.950;18.224;2023-11-22T00:34:25;71.50;;;25.70;;
57325;SDS011;43161;50.950;18.224;2023-11-22T00:36:51;88.60;;;29.40;;
57325;SDS011;43161;50.950;18.224;2023-11-22T00:39:18;78.50;;;27.70;;
57325;SDS011;43161;50.950;18.224;2023-11-22T00:41:45;75.70;;;24.90;;
57325;SDS011;43161;50.950;18.224;2023-11-22T00:44:11;69.80;;;25.00;;
57325;SDS011;43161;50.950;18.224;2023-11-22T00:46:37;76.30;;;26.50;;
57325;SDS011;43161;50.950;18.224;2023-11-22T00:49:03;72.20;;;23.40;;
57325;SDS011;43161;50.950;18.224;2023-11-22T00:51:33;80.60;;;25.10;;
57325;SDS011;43161;50.950;18.224;2023-11-22T00:53:59;74.50;;;26.30;;
57325;SDS011;43161;50.950;18.224;2023-11-22T00:56:25;77.50;;;26.90;;
57325;SDS011;43161;50.950;18.224;2023-11-22T00:58:52;77.60;;;26.00;;
57325;SDS011;43161;50.950;18.224;2023-11-22T01:01:21;76.20;;;26.30;;
57325;SDS011;43161;50.950;18.224;2023-11-22T01:03:47;69.50;;;23.10;;
57325;SDS011;43161;50.950;18.224;2023-11-22T01:06:13;68.90;;;22.80;;
57325;SDS011;43161;50.950;18.224;2023-11-22T01:08:39;67.40;;;24.40;;
57325;SDS011;43161;50.950;18.224;2023-11-22T01:11:05;70.40;;;24.60;;
57325;SDS011;43161;50.950;18.224;2023-11-22T01:13:31;69.70;;;24.60;;
57325;SDS011;43161;50.950;18.224;2023-11-22T01:15:58;67.40;;;23.70;;
57325;SDS011;43161;50.950;18.224;2023-11-22T01:18:24;65.10;;;22.70;;
57325;SDS011;43161;50.950;18.224;2023-11-22T01:20:50;64.00;;;22.80;;
57325;SDS011;43161;50.950;18.224;2023-11-22T01:23:15;62.30;;;23.50;;
57325;SDS011;43161;50.950;18.224;2023-11-22T01:25:41;63.10;;;22.30;;
57325;SDS011;43161;50.950;18.224;2023-11-22T01:28:07;74.50;;;24.50;;
57325;SDS011;43161;50.950;18.224;2023-11-22T01:30:32;69.80;;;23.70;;
57325;SDS011;43161;50.950;18.224;2023-11-22T01:32:58;61.00;;;23.10;;
57325;SDS011;43161;50.950;18.224;2023-11-22T01:35:24;72.80;;;25.10;;
57325;SDS011;43161;50.950;18.224;2023-11-22T01:37:50;69.40;;;24.30;;
57325;SDS011;43161;50.950;18.224;2023-11-22T01:40:17;68.00;;;25.10;;
57325;SDS011;43161;50.950;18.224;2023-11-22T01:42:44;63.90;;;23.60;;
57325;SDS011;43161;50.950;18.224;2023-11-22T01:45:12;69.90;;;24.80;;
57325;SDS011;43161;50.950;18.224;2023-11-22T01:47:38;72.90;;;25.10;;
57325;SDS011;43161;50.950;18.224;2023-11-22T01:50:06;72.70;;;24.70;;
57325;SDS011;43161;50.950;18.224;2023-11-22T01:52:32;65.50;;;23.80;;
57325;SDS011;43161;50.950;18.224;2023-11-22T01:54:58;63.80;;;23.80;;
57325;SDS011;43161;50.950;18.224;2023-11-22T01:57:26;62.80;;;23.80;;
57325;SDS011;43161;50.950;18.224;2023-11-22T01:59:51;66.60;;;23.30;;
57325;SDS011;43161;50.950;18.224;2023-11-22T02:02:17;67.40;;;23.60;;
57325;SDS011;43161;50.950;18.224;2023-11-22T02:04:43;67.70;;;24.20;;
57325;SDS011;43161;50.950;18.224;2023-11-22T02:07:09;66.60;;;23.00;;
57325;SDS011;43161;50.950;18.224;2023-11-22T02:09:35;76.40;;;24.60;;
57325;SDS011;43161;50.950;18.224;2023-11-22T02:12:01;72.60;;;24.70;;
57325;SDS011;43161;50.950;18.224;2023-11-22T02:14:27;68.60;;;23.80;;
57325;SDS011;43161;50.950;18.224;2023-11-22T02:16:52;75.40;;;25.60;;
57325;SDS011;43161;50.950;18.224;2023-11-22T02:19:18;73.00;;;24.70;;
57325;SDS011;43161;50.950;18.224;2023-11-22T02:21:45;70.20;;;25.00;;
57325;SDS011;43161;50.950;18.224;2023-11-22T02:24:10;67.40;;;24.00;;
57325;SDS011;43161;50.950;18.224;2023-11-22T02:26:37;71.60;;;25.00;;
57325;SDS011;43161;50.950;18.224;2023-11-22T02:29:04;65.80;;;23.80;;
57325;SDS011;43161;50.950;18.224;2023-11-22T02:31:30;71.30;;;24.50;;
57325;SDS011;43161;50.950;18.224;2023-11-22T02:33:56;70.00;;;23.60;;
57325;SDS011;43161;50.950;18.224;2023-11-22T02:36:24;69.80;;;23.30;;
57325;SDS011;43161;50.950;18.224;2023-11-22T02:38:50;66.90;;;24.20;;
57325;SDS011;43161;50.950;18.224;2023-11-22T02:41:16;59.50;;;22.20;;
57325;SDS011;43161;50.950;18.224;2023-11-22T02:43:43;60.50;;;22.50;;
57325;SDS011;43161;50.950;18.224;2023-11-22T02:46:08;60.80;;;21.50;;
57325;SDS011;43161;50.950;18.224;2023-11-22T02:48:34;60.00;;;21.00;;
57325;SDS011;43161;50.950;18.224;2023-11-22T02:51:00;60.50;;;22.10;;
57325;SDS011;43161;50.950;18.224;2023-11-22T02:53:26;66.00;;;23.00;;
57325;SDS011;43161;50.950;18.224;2023-11-22T02:55:52;63.10;;;22.10;;
57325;SDS011;43161;50.950;18.224;2023-11-22T02:58:21;62.20;;;22.10;;
57325;SDS011;43161;50.950;18.224;2023-11-22T03:00:47;58.40;;;22.00;;
57325;SDS011;43161;50.950;18.224;2023-11-22T03:03:14;57.50;;;20.90;;
57325;SDS011;43161;50.950;18.224;2023-11-22T03:05:40;57.80;;;21.80;;
57325;SDS011;43161;50.950;18.224;2023-11-22T03:08:06;57.00;;;22.10;;
57325;SDS011;43161;50.950;18.224;2023-11-22T03:10:35;59.20;;;23.00;;
57325;SDS011;43161;50.950;18.224;2023-11-22T03:13:01;56.70;;;20.20;;
57325;SDS011;43161;50.950;18.224;2023-11-22T03:15:27;55.10;;;21.00;;
57325;SDS011;43161;50.950;18.224;2023-11-22T03:17:53;57.40;;;20.90;;
57325;SDS011;43161;50.950;18.224;2023-11-22T03:20:19;54.40;;;19.70;;
57325;SDS011;43161;50.950;18.224;2023-11-22T03:22:45;53.80;;;21.70;;
57325;SDS011;43161;50.950;18.224;2023-11-22T03:25:13;53.60;;;20.50;;
57325;SDS011;43161;50.950;18.224;2023-11-22T03:27:39;51.70;;;20.70;;
57325;SDS011;43161;50.950;18.224;2023-11-22T03:30:05;49.10;;;19.30;;
57325;SDS011;43161;50.950;18.224;2023-11-22T03:32:39;61.60;;;22.10;;
57325;SDS011;43161;50.950;18.224;2023-11-22T03:35:09;53.50;;;20.40;;
57325;SDS011;43161;50.950;18.224;2023-11-22T03:37:35;53.70;;;20.60;;
57325;SDS011;43161;50.950;18.224;2023-11-22T03:40:01;48.10;;;19.70;;
57325;SDS011;43161;50.950;18.224;2023-11-22T03:42:28;44.40;;;17.80;;
57325;SDS011;43161;50.950;18.224;2023-11-22T03:44:54;51.60;;;19.80;;
57325;SDS011;43161;50.950;18.224;2023-11-22T03:47:20;47.50;;;19.40;;
57325;SDS011;43161;50.950;18.224;2023-11-22T03:49:47;47.30;;;18.10;;
57325;SDS011;43161;50.950;18.224;2023-11-22T03:52:12;48.70;;;20.50;;
57325;SDS011;43161;50.950;18.224;2023-11-22T03:54:39;49.60;;;19.50;;
57325;SDS011;43161;50.950;18.224;2023-11-22T03:57:05;44.00;;;17.50;;
57325;SDS011;43161;50.950;18.224;2023-11-22T03:59:31;47.00;;;18.80;;
57325;SDS011;43161;50.950;18.224;2023-11-22T04:01:57;45.20;;;18.40;;
57325;SDS011;43161;50.950;18.224;2023-11-22T04:04:23;44.90;;;17.60;;
57325;SDS011;43161;50.950;18.224;2023-11-22T04:06:49;43.90;;;18.00;;
57325;SDS011;43161;50.950;18.224;2023-11-22T04:09:15;42.30;;;17.40;;
57325;SDS011;43161;50.950;18.224;2023-11-22T04:11:45;46.60;;;17.10;;
57325;SDS011;43161;50.950;18.224;2023-11-22T04:14:12;42.70;;;19.00;;
57325;SDS011;43161;50.950;18.224;2023-11-22T04:16:38;45.60;;;18.90;;
57325;SDS011;43161;50.950;18.224;2023-11-22T04:19:04;39.00;;;16.70;;
57325;SDS011;43161;50.950;18.224;2023-11-22T04:21:30;42.60;;;16.90;;
57325;SDS011;43161;50.950;18.224;2023-11-22T04:23:56;35.10;;;16.30;;
57325;SDS011;43161;50.950;18.224;2023-11-22T04:26:21;39.70;;;16.40;;
57325;SDS011;43161;50.950;18.224;2023-11-22T04:28:47;35.60;;;14.90;;
57325;SDS011;43161;50.950;18.224;2023-11-22T04:31:13;39.30;;;15.70;;
57325;SDS011;43161;50.950;18.224;2023-11-22T04:33:40;38.20;;;15.60;;
57325;SDS011;43161;50.950;18.224;2023-11-22T04:36:06;37.40;;;15.10;;
57325;SDS011;43161;50.950;18.224;2023-11-22T04:38:32;35.80;;;15.10;;
57325;SDS011;43161;50.950;18.224;2023-11-22T04:40:59;37.20;;;15.20;;
57325;SDS011;43161;50.950;18.224;2023-11-22T04:43:25;36.80;;;15.00;;
57325;SDS011;43161;50.950;18.224;2023-11-22T04:45:51;35.20;;;14.80;;
57325;SDS011;43161;50.950;18.224;2023-11-22T04:48:17;34.40;;;14.30;;
57325;SDS011;43161;50.950;18.224;2023-11-22T04:50:42;36.20;;;14.60;;
57325;SDS011;43161;50.950;18.224;2023-11-22T04:53:08;33.80;;;14.40;;
57325;SDS011;43161;50.950;18.224;2023-11-22T04:55:35;32.80;;;14.90;;
57325;SDS011;43161;50.950;18.224;2023-11-22T04:58:01;36.50;;;14.40;;
57325;SDS011;43161;50.950;18.224;2023-11-22T05:00:27;35.90;;;15.70;;
57325;SDS011;43161;50.950;18.224;2023-11-22T05:02:53;37.90;;;14.80;;
57325;SDS011;43161;50.950;18.224;2023-11-22T05:05:19;40.10;;;16.80;;
57325;SDS011;43161;50.950;18.224;2023-11-22T05:07:46;35.10;;;15.00;;
57325;SDS011;43161;50.950;18.224;2023-11-22T05:10:15;34.00;;;15.30;;
57325;SDS011;43161;50.950;18.224;2023-11-22T05:12:42;36.80;;;16.00;;
57325;SDS011;43161;50.950;18.224;2023-11-22T05:15:10;36.50;;;15.10;;
57325;SDS011;43161;50.950;18.224;2023-11-22T05:17:36;35.60;;;15.80;;
57325;SDS011;43161;50.950;18.224;2023-11-22T05:20:01;32.80;;;14.90;;
57325;SDS011;43161;50.950;18.224;2023-11-22T05:22:28;36.40;;;14.30;;
57325;SDS011;43161;50.950;18.224;2023-11-22T05:24:53;34.50;;;15.10;;
57325;SDS011;43161;50.950;18.224;2023-11-22T05:27:19;36.00;;;14.50;;
57325;SDS011;43161;50.950;18.224;2023-11-22T05:29:45;35.70;;;14.80;;
57325;SDS011;43161;50.950;18.224;2023-11-22T05:32:10;34.20;;;14.40;;
57325;SDS011;43161;50.950;18.224;2023-11-22T05:34:36;33.90;;;14.50;;
57325;SDS011;43161;50.950;18.224;2023-11-22T05:37:02;36.80;;;14.70;;
57325;SDS011;43161;50.950;18.224;2023-11-22T05:39:31;33.70;;;14.70;;
57325;SDS011;43161;50.950;18.224;2023-11-22T05:41:56;33.50;;;13.80;;
57325;SDS011;43161;50.950;18.224;2023-11-22T05:44:22;35.00;;;15.50;;
57325;SDS011;43161;50.950;18.224;2023-11-22T05:46:48;35.80;;;15.00;;
57325;SDS011;43161;50.950;18.224;2023-11-22T05:49:13;33.30;;;13.80;;
57325;SDS011;43161;50.950;18.224;2023-11-22T05:51:39;31.50;;;13.60;;
57325;SDS011;43161;50.950;18.224;2023-11-22T05:54:06;33.20;;;15.00;;
57325;SDS011;43161;50.950;18.224;2023-11-22T05:56:32;36.80;;;15.30;;
57325;SDS011;43161;50.950;18.224;2023-11-22T05:58:57;35.80;;;13.40;;
57325;SDS011;43161;50.950;18.224;2023-11-22T06:01:25;35.50;;;14.50;;
57325;SDS011;43161;50.950;18.224;2023-11-22T06:03:51;32.90;;;14.00;;
57325;SDS011;43161;50.950;18.224;2023-11-22T06:06:18;34.30;;;13.80;;
57325;SDS011;43161;50.950;18.224;2023-11-22T06:08:47;31.70;;;13.30;;
57325;SDS011;43161;50.950;18.224;2023-11-22T06:11:13;33.70;;;13.80;;
57325;SDS011;43161;50.950;18.224;2023-11-22T06:13:40;31.60;;;13.00;;
57325;SDS011;43161;50.950;18.224;2023-11-22T06:16:08;31.10;;;13.40;;
57325;SDS011;43161;50.950;18.224;2023-11-22T06:18:34;32.70;;;13.60;;
57325;SDS011;43161;50.950;18.224;2023-11-22T06:21:08;29.90;;;13.00;;
57325;SDS011;43161;50.950;18.224;2023-11-22T06:23:34;33.50;;;13.20;;
57325;SDS011;43161;50.950;18.224;2023-11-22T06:26:00;35.10;;;13.50;;
57325;SDS011;43161;50.950;18.224;2023-11-22T06:28:26;35.70;;;14.50;;
57325;SDS011;43161;50.950;18.224;2023-11-22T06:30:52;30.80;;;13.40;;
57325;SDS011;43161;50.950;18.224;2023-11-22T06:33:18;34.70;;;13.70;;
57325;SDS011;43161;50.950;18.224;2023-11-22T06:35:45;33.40;;;13.90;;
57325;SDS011;43161;50.950;18.224;2023-11-22T06:38:11;29.80;;;12.60;;
57325;SDS011;43161;50.950;18.224;2023-11-22T06:40:37;33.30;;;13.70;;
57325;SDS011;43161;50.950;18.224;2023-11-22T06:43:02;32.40;;;13.70;;
57325;SDS011;43161;50.950;18.224;2023-11-22T06:45:32;31.90;;;13.00;;
57325;SDS011;43161;50.950;18.224;2023-11-22T06:47:57;33.70;;;14.10;;
57325;SDS011;43161;50.950;18.224;2023-11-22T06:50:23;28.70;;;12.70;;
57325;SDS011;43161;50.950;18.224;2023-11-22T06:52:49;31.70;;;11.70;;
57325;SDS011;43161;50.950;18.224;2023-11-22T06:55:17;32.30;;;12.70;;
57325;SDS011;43161;50.950;18.224;2023-11-22T06:57:43;28.60;;;12.50;;
57325;SDS011;43161;50.950;18.224;2023-11-22T07:00:10;29.80;;;12.50;;
57325;SDS011;43161;50.950;18.224;2023-11-22T07:02:38;36.90;;;13.10;;
57325;SDS011;43161;50.950;18.224;2023-11-22T07:05:04;28.50;;;11.90;;
57325;SDS011;43161;50.950;18.224;2023-11-22T07:07:34;32.00;;;13.00;;
57325;SDS011;43161;50.950;18.224;2023-11-22T07:10:01;31.90;;;13.00;;
57325;SDS011;43161;50.950;18.224;2023-11-22T07:12:27;30.90;;;12.10;;
57325;SDS011;43161;50.950;18.224;2023-11-22T07:14:54;29.10;;;11.60;;
57325;SDS011;43161;50.950;18.224;2023-11-22T07:17:20;29.40;;;11.50;;
57325;SDS011;43161;50.950;18.224;2023-11-22T07:19:48;29.20;;;11.30;;
57325;SDS011;43161;50.950;18.224;2023-11-22T07:22:14;27.20;;;11.00;;
57325;SDS011;43161;50.950;18.224;2023-11-22T07:24:45;26.20;;;10.90;;
57325;SDS011;43161;50.950;18.224;2023-11-22T07:27:13;26.40;;;10.30;;
57325;SDS011;43161;50.950;18.224;2023-11-22T07:29:40;26.10;;;10.70;;
57325;SDS011;43161;50.950;18.224;2023-11-22T07:32:06;30.00;;;11.30;;
57325;SDS011;43161;50.950;18.224;2023-11-22T07:34:34;25.30;;;10.30;;
57325;SDS011;43161;50.950;18.224;2023-11-22T07:37:00;24.70;;;9.60;;
57325;SDS011;43161;50.950;18.224;2023-11-22T07:39:26;24.80;;;9.80;;
57325;SDS011;43161;50.950;18.224;2023-11-22T07:41:53;25.60;;;9.60;;
57325;SDS011;43161;50.950;18.224;2023-11-22T07:44:23;24.90;;;9.50;;
57325;SDS011;43161;50.950;18.224;2023-11-22T07:46:50;24.90;;;10.20;;
57325;SDS011;43161;50.950;18.224;2023-11-22T07:49:18;26.60;;;9.30;;
57325;SDS011;43161;50.950;18.224;2023-11-22T07:51:47;26.00;;;10.20;;
57325;SDS011;43161;50.950;18.224;2023-11-22T07:54:20;24.20;;;10.00;;
57325;SDS011;43161;50.950;18.224;2023-11-22T07:56:50;28.00;;;11.10;;
57325;SDS011;43161;50.950;18.224;2023-11-22T07:59:18;24.80;;;10.60;;
57325;SDS011;43161;50.950;18.224;2023-11-22T08:01:44;25.80;;;10.90;;
57325;SDS011;43161;50.950;18.224;2023-11-22T08:04:12;30.30;;;12.30;;
57325;SDS011;43161;50.950;18.224;2023-11-22T08:06:38;33.50;;;12.90;;
57325;SDS011;43161;50.950;18.224;2023-11-22T08:09:04;23.70;;;10.20;;
57325;SDS011;43161;50.950;18.224;2023-11-22T08:11:30;25.90;;;10.50;;
57325;SDS011;43161;50.950;18.224;2023-11-22T08:13:57;30.70;;;11.20;;
57325;SDS011;43161;50.950;18.224;2023-11-22T08:16:25;27.10;;;11.10;;
57325;SDS011;43161;50.950;18.224;2023-11-22T08:18:51;25.10;;;10.30;;
57325;SDS011;43161;50.950;18.224;2023-11-22T08:21:17;25.20;;;10.30;;
57325;SDS011;43161;50.950;18.224;2023-11-22T08:23:45;26.20;;;10.10;;
57325;SDS011;43161;50.950;18.224;2023-11-22T08:26:12;22.80;;;9.30;;
57325;SDS011;43161;50.950;18.224;2023-11-22T08:28:38;24.90;;;9.60;;
57325;SDS011;43161;50.950;18.224;2023-11-22T08:31:04;22.10;;;9.30;;
57325;SDS011;43161;50.950;18.224;2023-11-22T08:33:33;23.30;;;9.00;;
57325;SDS011;43161;50.950;18.224;2023-11-22T08:35:59;24.10;;;9.90;;
57325;SDS011;43161;50.950;18.224;2023-11-22T08:38:26;26.20;;;10.50;;
57325;SDS011;43161;50.950;18.224;2023-11-22T08:40:52;21.00;;;9.20;;
57325;SDS011;43161;50.950;18.224;2023-11-22T08:43:17;21.20;;;9.20;;
57325;SDS011;43161;50.950;18.224;2023-11-22T08:45:48;23.80;;;9.30;;
57325;SDS011;43161;50.950;18.224;2023-11-22T08:48:15;24.80;;;10.10;;
57325;SDS011;43161;50.950;18.224;2023-11-22T08:50:41;26.40;;;10.70;;
57325;SDS011;43161;50.950;18.224;2023-11-22T08:53:06;24.70;;;9.80;;
57325;SDS011;43161;50.950;18.224;2023-11-22T08:55:33;26.50;;;10.30;;
57325;SDS011;43161;50.950;18.224;2023-11-22T08:57:59;25.70;;;10.50;;
57325;SDS011;43161;50.950;18.224;2023-11-22T09:00:25;25.40;;;10.20;;
57325;SDS011;43161;50.950;18.224;2023-11-22T09:02:53;24.20;;;9.90;;
57325;SDS011;43161;50.950;18.224;2023-11-22T09:05:22;23.70;;;10.00;;
57325;SDS011;43161;50.950;18.224;2023-11-22T09:07:48;24.70;;;10.40;;
57325;SDS011;43161;50.950;18.224;2023-11-22T09:10:16;25.00;;;10.60;;
57325;SDS011;43161;50.950;18.224;2023-11-22T09:12:43;25.90;;;11.20;;
57325;SDS011;43161;50.950;18.224;2023-11-22T09:15:10;27.80;;;10.60;;
57325;SDS011;43161;50.950;18.224;2023-11-22T09:17:38;28.40;;;12.70;;
57325;SDS011;43161;50.950;18.224;2023-11-22T09:20:09;27.40;;;12.80;;
57325;SDS011;43161;50.950;18.224;2023-11-22T09:22:42;27.60;;;11.20;;
57325;SDS011;43161;50.950;18.224;2023-11-22T09:25:22;25.90;;;11.80;;
57325;SDS011;43161;50.950;18.224;2023-11-22T09:27:51;25.60;;;11.30;;
57325;SDS011;43161;50.950;18.224;2023-11-22T09:30:21;27.40;;;11.30;;
57325;SDS011;43161;50.950;18.224;2023-11-22T09:33:05;24.40;;;10.30;;
57325;SDS011;43161;50.950;18.224;2023-11-22T09:35:32;26.10;;;11.00;;
57325;SDS011;43161;50.950;18.224;2023-11-22T09:38:02;25.60;;;11.10;;
57325;SDS011;43161;50.950;18.224;2023-11-22T09:40:30;29.50;;;10.90;;
57325;SDS011;43161;50.950;18.224;2023-11-22T09:42:59;25.00;;;10.70;;
57325;SDS011;43161;50.950;18.224;2023-11-22T09:45:27;25.50;;;11.10;;
57325;SDS011;43161;50.950;18.224;2023-11-22T09:47:54;24.40;;;10.50;;
57325;SDS011;43161;50.950;18.224;2023-11-22T09:50:23;24.30;;;11.20;;
57325;SDS011;43161;50.950;18.224;2023-11-22T09:52:51;23.90;;;10.90;;
57325;SDS011;43161;50.950;18.224;2023-11-22T09:55:19;27.50;;;11.20;;
57325;SDS011;43161;50.950;18.224;2023-11-22T09:57:46;24.90;;;11.40;;
57325;SDS011;43161;50.950;18.224;2023-11-22T10:00:12;26.50;;;10.80;;
57325;SDS011;43161;50.950;18.224;2023-11-22T10:02:40;25.00;;;11.20;;
57325;SDS011;43161;50.950;18.224;2023-11-22T10:05:06;27.80;;;12.60;;
57325;SDS011;43161;50.950;18.224;2023-11-22T10:07:34;22.90;;;10.70;;
57325;SDS011;43161;50.950;18.224;2023-11-22T10:10:01;29.60;;;11.80;;
57325;SDS011;43161;50.950;18.224;2023-11-22T10:12:30;31.10;;;12.90;;
57325;SDS011;43161;50.950;18.224;2023-11-22T10:17:39;30.50;;;13.30;;
57325;SDS011;43161;50.950;18.224;2023-11-22T10:20:05;29.00;;;12.90;;
57325;SDS011;43161;50.950;18.224;2023-11-22T10:25:19;36.00;;;14.30;;
57325;SDS011;43161;50.950;18.224;2023-11-22T10:27:45;32.20;;;12.90;;
57325;SDS011;43161;50.950;18.224;2023-11-22T10:30:17;34.10;;;14.80;;
57325;SDS011;43161;50.950;18.224;2023-11-22T10:32:44;45.30;;;18.60;;
57325;SDS011;43161;50.950;18.224;2023-11-22T10:35:11;47.20;;;20.50;;
57325;SDS011;43161;50.950;18.224;2023-11-22T10:37:41;68.70;;;29.00;;
57325;SDS011;43161;50.950;18.224;2023-11-22T10:40:10;61.20;;;22.30;;
57325;SDS011;43161;50.950;18.224;2023-11-22T10:42:39;49.80;;;19.80;;
57325;SDS011;43161;50.950;18.224;2023-11-22T10:45:08;124.00;;;34.70;;
57325;SDS011;43161;50.950;18.224;2023-11-22T10:47:37;128.60;;;36.10;;
57325;SDS011;43161;50.950;18.224;2023-11-22T10:50:05;58.60;;;22.80;;
57325;SDS011;43161;50.950;18.224;2023-11-22T10:52:32;86.10;;;29.20;;
57325;SDS011;43161;50.950;18.224;2023-11-22T10:55:01;38.40;;;18.20;;
57325;SDS011;43161;50.950;18.224;2023-11-22T10:57:32;116.20;;;30.60;;
57325;SDS011;43161;50.950;18.224;2023-11-22T11:00:00;80.60;;;23.40;;
57325;SDS011;43161;50.950;18.224;2023-11-22T11:02:36;128.80;;;33.90;;
57325;SDS011;43161;50.950;18.224;2023-11-22T11:05:10;197.70;;;46.80;;
57325;SDS011;43161;50.950;18.224;2023-11-22T11:07:43;42.90;;;17.80;;
57325;SDS011;43161;50.950;18.224;2023-11-22T11:10:12;60.70;;;22.50;;
57325;SDS011;43161;50.950;18.224;2023-11-22T11:12:38;94.00;;;32.00;;
57325;SDS011;43161;50.950;18.224;2023-11-22T11:15:04;40.10;;;17.30;;
57325;SDS011;43161;50.950;18.224;2023-11-22T11:17:31;54.00;;;22.50;;
57325;SDS011;43161;50.950;18.224;2023-11-22T11:19:57;31.60;;;13.90;;
57325;SDS011;43161;50.950;18.224;2023-11-22T11:22:23;35.10;;;16.30;;
57325;SDS011;43161;50.950;18.224;2023-11-22T11:24:49;37.20;;;18.60;;
57325;SDS011;43161;50.950;18.224;2023-11-22T11:27:26;27.70;;;13.40;;
57325;SDS011;43161;50.950;18.224;2023-11-22T11:29:51;24.90;;;11.20;;
57325;SDS011;43161;50.950;18.224;2023-11-22T11:35:04;28.00;;;12.50;;
57325;SDS011;43161;50.950;18.224;2023-11-22T11:37:33;28.70;;;13.30;;
57325;SDS011;43161;50.950;18.224;2023-11-22T11:39:59;29.30;;;13.30;;
57325;SDS011;43161;50.950;18.224;2023-11-22T11:42:25;27.40;;;12.50;;
57325;SDS011;43161;50.950;18.224;2023-11-22T11:44:51;34.90;;;15.00;;
57325;SDS011;43161;50.950;18.224;2023-11-22T11:47:28;38.90;;;16.90;;
57325;SDS011;43161;50.950;18.224;2023-11-22T11:49:57;35.90;;;18.20;;
57325;SDS011;43161;50.950;18.224;2023-11-22T11:52:24;28.30;;;15.10;;
57325;SDS011;43161;50.950;18.224;2023-11-22T11:54:51;21.60;;;10.80;;
57325;SDS011;43161;50.950;18.224;2023-11-22T11:57:17;21.90;;;10.90;;
57325;SDS011;43161;50.950;18.224;2023-11-22T11:59:43;30.90;;;12.80;;
57325;SDS011;43161;50.950;18.224;2023-11-22T12:02:10;33.40;;;13.20;;
57325;SDS011;43161;50.950;18.224;2023-11-22T12:04:36;41.50;;;17.70;;
57325;SDS011;43161;50.950;18.224;2023-11-22T12:07:02;23.60;;;10.10;;
57325;SDS011;43161;50.950;18.224;2023-11-22T12:09:27;20.00;;;8.50;;
57325;SDS011;43161;50.950;18.224;2023-11-22T12:11:56;19.40;;;8.10;;
57325;SDS011;43161;50.950;18.224;2023-11-22T12:14:24;22.10;;;8.70;;
57325;SDS011;43161;50.950;18.224;2023-11-22T12:16:51;17.80;;;8.00;;
57325;SDS011;43161;50.950;18.224;2023-11-22T12:19:22;19.60;;;8.00;;
57325;SDS011;43161;50.950;18.224;2023-11-22T12:21:48;20.10;;;9.50;;
57325;SDS011;43161;50.950;18.224;2023-11-22T12:24:14;62.90;;;27.20;;
57325;SDS011;43161;50.950;18.224;2023-11-22T12:26:44;66.30;;;28.30;;
57325;SDS011;43161;50.950;18.224;2023-11-22T12:29:11;59.80;;;27.20;;
57325;SDS011;43161;50.950;18.224;2023-11-22T12:34:22;32.00;;;13.90;;
57325;SDS011;43161;50.950;18.224;2023-11-22T12:36:50;32.50;;;13.80;;
57325;SDS011;43161;50.950;18.224;2023-11-22T12:39:16;22.60;;;10.80;;
57325;SDS011;43161;50.950;18.224;2023-11-22T12:41:47;23.30;;;10.50;;
57325;SDS011;43161;50.950;18.224;2023-11-22T12:44:14;22.60;;;8.10;;
57325;SDS011;43161;50.950;18.224;2023-11-22T12:47:01;16.80;;;7.60;;
57325;SDS011;43161;50.950;18.224;2023-11-22T12:49:27;19.70;;;8.20;;
57325;SDS011;43161;50.950;18.224;2023-11-22T12:51:53;18.00;;;6.90;;
57325;SDS011;43161;50.950;18.224;2023-11-22T12:54:19;18.20;;;7.90;;
57325;SDS011;43161;50.950;18.224;2023-11-22T12:56:47;17.80;;;7.70;;
57325;SDS011;43161;50.950;18.224;2023-11-22T12:59:14;37.50;;;12.70;;
57325;SDS011;43161;50.950;18.224;2023-11-22T13:01:40;47.30;;;16.30;;
57325;SDS011;43161;50.950;18.224;2023-11-22T13:04:06;41.60;;;15.80;;
57325;SDS011;43161;50.950;18.224;2023-11-22T13:06:33;36.90;;;15.00;;
57325;SDS011;43161;50.950;18.224;2023-11-22T13:08:59;30.40;;;14.30;;
57325;SDS011;43161;50.950;18.224;2023-11-22T13:11:24;24.10;;;12.00;;
57325;SDS011;43161;50.950;18.224;2023-11-22T13:13:51;23.70;;;10.60;;
57325;SDS011;43161;50.950;18.224;2023-11-22T13:16:16;22.90;;;10.50;;
57325;SDS011;43161;50.950;18.224;2023-11-22T13:18:42;23.60;;;11.60;;
57325;SDS011;43161;50.950;18.224;2023-11-22T13:21:08;22.90;;;10.30;;
57325;SDS011;43161;50.950;18.224;2023-11-22T13:23:34;24.10;;;9.40;;
57325;SDS011;43161;50.950;18.224;2023-11-22T13:25:59;28.80;;;12.00;;
57325;SDS011;43161;50.950;18.224;2023-11-22T13:28:25;25.70;;;10.90;;
57325;SDS011;43161;50.950;18.224;2023-11-22T13:30:51;22.70;;;11.00;;
57325;SDS011;43161;50.950;18.224;2023-11-22T13:33:17;23.30;;;9.90;;
57325;SDS011;43161;50.950;18.224;2023-11-22T13:35:43;28.90;;;13.20;;
57325;SDS011;43161;50.950;18.224;2023-11-22T13:38:09;41.20;;;16.40;;
57325;SDS011;43161;50.950;18.224;2023-11-22T13:40:39;24.50;;;10.00;;
57325;SDS011;43161;50.950;18.224;2023-11-22T13:43:06;18.70;;;8.30;;
57325;SDS011;43161;50.950;18.224;2023-11-22T13:45:35;19.70;;;9.70;;
57325;SDS011;43161;50.950;18.224;2023-11-22T13:48:03;24.90;;;10.90;;
57325;SDS011;43161;50.950;18.224;2023-11-22T13:50:31;25.20;;;10.40;;
57325;SDS011;43161;50.950;18.224;2023-11-22T13:52:58;27.60;;;10.60;;
57325;SDS011;43161;50.950;18.224;2023-11-22T13:55:24;26.80;;;11.60;;
57325;SDS011;43161;50.950;18.224;2023-11-22T13:57:51;23.40;;;10.20;;
57325;SDS011;43161;50.950;18.224;2023-11-22T14:00:21;23.10;;;9.60;;
57325;SDS011;43161;50.950;18.224;2023-11-22T14:02:50;19.40;;;8.10;;
57325;SDS011;43161;50.950;18.224;2023-11-22T14:05:17;20.10;;;8.40;;
57325;SDS011;43161;50.950;18.224;2023-11-22T14:07:43;20.80;;;8.80;;
57325;SDS011;43161;50.950;18.224;2023-11-22T14:10:09;20.40;;;8.20;;
57325;SDS011;43161;50.950;18.224;2023-11-22T14:12:36;20.20;;;8.60;;
57325;SDS011;43161;50.950;18.224;2023-11-22T14:15:02;18.10;;;8.10;;
57325;SDS011;43161;50.950;18.224;2023-11-22T14:17:31;21.30;;;9.50;;
57325;SDS011;43161;50.950;18.224;2023-11-22T14:19:57;25.60;;;10.20;;